sensor_id;sensor_type;location;lat;lon;timestamp;P1;durP1;ratioP1;P2;durP2;ratioP2
60867;SDS011;46702;48.370;10.794;2023-03-03T00:01:22;36.60;;;14.10;;
60867;SDS011;46702;48.370;10.794;2023-03-03T00:03:51;35.22;;;15.00;;
60867;SDS011;46702;48.370;10.794;2023-03-03T00:06:17;33.17;;;15.25;;
60867;SDS011;46702;48.370;10.794;2023-03-03T00:08:43;34.13;;;15.18;;
60867;SDS011;46702;48.370;10.794;2023-03-03T00:11:08;42.53;;;16.20;;
60867;SDS011;46702;48.370;10.794;2023-03-03T00:13:38;35.03;;;16.05;;
60867;SDS011;46702;48.370;10.794;2023-03-03T00:16:34;32.55;;;15.13;;
60867;SDS011;46702;48.370;10.794;2023-03-03T00:19:14;38.22;;;17.08;;
60867;SDS011;46702;48.370;10.794;2023-03-03T00:21:49;35.63;;;15.60;;
60867;SDS011;46702;48.370;10.794;2023-03-03T00:24:22;46.75;;;17.38;;
60867;SDS011;46702;48.370;10.794;2023-03-03T00:26:52;35.47;;;14.30;;
60867;SDS011;46702;48.370;10.794;2023-03-03T00:32:15;36.53;;;15.38;;
60867;SDS011;46702;48.370;10.794;2023-03-03T00:34:46;33.55;;;14.77;;
60867;SDS011;46702;48.370;10.794;2023-03-03T00:37:31;41.60;;;15.85;;
60867;SDS011;46702;48.370;10.794;2023-03-03T00:40:17;35.10;;;14.85;;
60867;SDS011;46702;48.370;10.794;2023-03-03T00:42:52;38.55;;;15.25;;
60867;SDS011;46702;48.370;10.794;2023-03-03T00:45:23;35.80;;;16.20;;
60867;SDS011;46702;48.370;10.794;2023-03-03T00:47:54;30.33;;;14.15;;
60867;SDS011;46702;48.370;10.794;2023-03-03T00:50:29;30.02;;;11.75;;
60867;SDS011;46702;48.370;10.794;2023-03-03T00:53:01;31.98;;;15.10;;
60867;SDS011;46702;48.370;10.794;2023-03-03T00:55:27;35.05;;;14.23;;
60867;SDS011;46702;48.370;10.794;2023-03-03T00:57:53;36.72;;;17.20;;
60867;SDS011;46702;48.370;10.794;2023-03-03T01:00:19;35.55;;;15.00;;
60867;SDS011;46702;48.370;10.794;2023-03-03T01:02:44;35.05;;;17.05;;
60867;SDS011;46702;48.370;10.794;2023-03-03T01:05:12;38.10;;;15.75;;
60867;SDS011;46702;48.370;10.794;2023-03-03T01:07:38;40.30;;;15.98;;
60867;SDS011;46702;48.370;10.794;2023-03-03T01:10:04;38.80;;;14.63;;
60867;SDS011;46702;48.370;10.794;2023-03-03T01:12:30;41.47;;;16.85;;
60867;SDS011;46702;48.370;10.794;2023-03-03T01:14:56;29.45;;;13.43;;
60867;SDS011;46702;48.370;10.794;2023-03-03T01:17:21;38.03;;;15.80;;
60867;SDS011;46702;48.370;10.794;2023-03-03T01:19:47;35.47;;;15.05;;
60867;SDS011;46702;48.370;10.794;2023-03-03T01:22:13;36.17;;;16.52;;
60867;SDS011;46702;48.370;10.794;2023-03-03T01:24:38;34.55;;;15.25;;
60867;SDS011;46702;48.370;10.794;2023-03-03T01:27:04;41.70;;;17.88;;
60867;SDS011;46702;48.370;10.794;2023-03-03T01:29:29;41.08;;;14.63;;
60867;SDS011;46702;48.370;10.794;2023-03-03T01:31:55;36.83;;;15.38;;
60867;SDS011;46702;48.370;10.794;2023-03-03T01:34:21;29.90;;;13.85;;
60867;SDS011;46702;48.370;10.794;2023-03-03T01:36:47;34.08;;;14.85;;
60867;SDS011;46702;48.370;10.794;2023-03-03T01:39:12;26.67;;;13.25;;
60867;SDS011;46702;48.370;10.794;2023-03-03T01:41:38;32.83;;;12.93;;
60867;SDS011;46702;48.370;10.794;2023-03-03T01:44:04;37.20;;;14.35;;
60867;SDS011;46702;48.370;10.794;2023-03-03T01:47:12;36.35;;;15.88;;
60867;SDS011;46702;48.370;10.794;2023-03-03T01:49:40;34.10;;;13.85;;
60867;SDS011;46702;48.370;10.794;2023-03-03T01:52:22;40.20;;;12.95;;
60867;SDS011;46702;48.370;10.794;2023-03-03T01:54:53;38.05;;;16.20;;
60867;SDS011;46702;48.370;10.794;2023-03-03T01:57:24;37.95;;;14.52;;
60867;SDS011;46702;48.370;10.794;2023-03-03T01:59:55;46.97;;;16.15;;
60867;SDS011;46702;48.370;10.794;2023-03-03T02:02:22;34.38;;;15.70;;
60867;SDS011;46702;48.370;10.794;2023-03-03T02:04:51;38.80;;;16.90;;
60867;SDS011;46702;48.370;10.794;2023-03-03T02:07:16;34.75;;;14.50;;
60867;SDS011;46702;48.370;10.794;2023-03-03T02:12:39;36.22;;;15.73;;
60867;SDS011;46702;48.370;10.794;2023-03-03T02:15:16;36.17;;;14.43;;
60867;SDS011;46702;48.370;10.794;2023-03-03T02:17:47;37.17;;;14.93;;
60867;SDS011;46702;48.370;10.794;2023-03-03T02:25:52;15.07;;;9.23;;
60867;SDS011;46702;48.370;10.794;2023-03-03T02:28:22;33.13;;;14.10;;
60867;SDS011;46702;48.370;10.794;2023-03-03T02:30:53;40.08;;;14.65;;
60867;SDS011;46702;48.370;10.794;2023-03-03T02:33:19;31.73;;;13.80;;
60867;SDS011;46702;48.370;10.794;2023-03-03T02:35:45;35.45;;;15.30;;
60867;SDS011;46702;48.370;10.794;2023-03-03T02:38:21;33.78;;;14.52;;
60867;SDS011;46702;48.370;10.794;2023-03-03T02:46:10;32.10;;;14.80;;
60867;SDS011;46702;48.370;10.794;2023-03-03T02:48:36;67.20;;;23.73;;
60867;SDS011;46702;48.370;10.794;2023-03-03T02:51:02;55.65;;;21.98;;
60867;SDS011;46702;48.370;10.794;2023-03-03T02:53:27;37.45;;;15.90;;
60867;SDS011;46702;48.370;10.794;2023-03-03T02:55:53;39.80;;;17.02;;
60867;SDS011;46702;48.370;10.794;2023-03-03T02:58:18;31.40;;;13.48;;
60867;SDS011;46702;48.370;10.794;2023-03-03T03:00:44;33.15;;;13.65;;
60867;SDS011;46702;48.370;10.794;2023-03-03T03:03:11;35.58;;;14.73;;
60867;SDS011;46702;48.370;10.794;2023-03-03T03:05:37;36.50;;;14.70;;
60867;SDS011;46702;48.370;10.794;2023-03-03T03:08:03;36.83;;;14.90;;
60867;SDS011;46702;48.370;10.794;2023-03-03T03:10:28;31.17;;;13.23;;
60867;SDS011;46702;48.370;10.794;2023-03-03T03:12:54;33.47;;;14.55;;
60867;SDS011;46702;48.370;10.794;2023-03-03T03:15:19;33.75;;;14.15;;
60867;SDS011;46702;48.370;10.794;2023-03-03T03:17:45;33.42;;;14.52;;
60867;SDS011;46702;48.370;10.794;2023-03-03T03:20:11;35.08;;;12.43;;
60867;SDS011;46702;48.370;10.794;2023-03-03T03:22:37;26.48;;;12.05;;
60867;SDS011;46702;48.370;10.794;2023-03-03T03:25:02;31.70;;;15.15;;
60867;SDS011;46702;48.370;10.794;2023-03-03T03:27:28;31.20;;;16.00;;
60867;SDS011;46702;48.370;10.794;2023-03-03T03:29:54;31.50;;;14.38;;
60867;SDS011;46702;48.370;10.794;2023-03-03T03:32:19;34.47;;;15.13;;
60867;SDS011;46702;48.370;10.794;2023-03-03T03:34:45;38.67;;;15.63;;
60867;SDS011;46702;48.370;10.794;2023-03-03T03:37:11;36.42;;;13.45;;
60867;SDS011;46702;48.370;10.794;2023-03-03T03:39:36;37.80;;;14.30;;
60867;SDS011;46702;48.370;10.794;2023-03-03T03:42:02;27.23;;;11.77;;
60867;SDS011;46702;48.370;10.794;2023-03-03T03:44:27;39.17;;;14.82;;
60867;SDS011;46702;48.370;10.794;2023-03-03T03:46:53;28.50;;;12.07;;
60867;SDS011;46702;48.370;10.794;2023-03-03T03:49:19;38.40;;;15.45;;
60867;SDS011;46702;48.370;10.794;2023-03-03T03:51:45;34.75;;;16.13;;
60867;SDS011;46702;48.370;10.794;2023-03-03T03:54:11;35.28;;;16.63;;
60867;SDS011;46702;48.370;10.794;2023-03-03T03:56:37;31.95;;;13.07;;
60867;SDS011;46702;48.370;10.794;2023-03-03T03:59:04;39.17;;;14.93;;
60867;SDS011;46702;48.370;10.794;2023-03-03T04:01:30;28.17;;;12.68;;
60867;SDS011;46702;48.370;10.794;2023-03-03T04:03:56;30.73;;;15.50;;
60867;SDS011;46702;48.370;10.794;2023-03-03T04:06:22;33.42;;;14.27;;
60867;SDS011;46702;48.370;10.794;2023-03-03T04:08:47;34.70;;;15.52;;
60867;SDS011;46702;48.370;10.794;2023-03-03T04:11:13;36.45;;;13.98;;
60867;SDS011;46702;48.370;10.794;2023-03-03T04:13:38;33.30;;;13.73;;
60867;SDS011;46702;48.370;10.794;2023-03-03T04:16:04;20.25;;;10.25;;
60867;SDS011;46702;48.370;10.794;2023-03-03T04:18:30;22.45;;;12.23;;
60867;SDS011;46702;48.370;10.794;2023-03-03T04:20:55;19.05;;;9.00;;
60867;SDS011;46702;48.370;10.794;2023-03-03T04:23:21;25.50;;;13.38;;
60867;SDS011;46702;48.370;10.794;2023-03-03T04:25:47;15.38;;;10.95;;
60867;SDS011;46702;48.370;10.794;2023-03-03T04:28:14;30.13;;;13.65;;
60867;SDS011;46702;48.370;10.794;2023-03-03T04:30:40;36.95;;;14.90;;
60867;SDS011;46702;48.370;10.794;2023-03-03T04:33:05;28.13;;;12.30;;
60867;SDS011;46702;48.370;10.794;2023-03-03T04:35:31;31.15;;;13.88;;
60867;SDS011;46702;48.370;10.794;2023-03-03T04:37:57;31.52;;;15.07;;
60867;SDS011;46702;48.370;10.794;2023-03-03T04:40:22;27.52;;;12.32;;
60867;SDS011;46702;48.370;10.794;2023-03-03T04:42:48;30.40;;;13.30;;
60867;SDS011;46702;48.370;10.794;2023-03-03T04:45:14;21.35;;;11.98;;
60867;SDS011;46702;48.370;10.794;2023-03-03T04:47:40;18.25;;;9.13;;
60867;SDS011;46702;48.370;10.794;2023-03-03T04:50:05;31.67;;;13.68;;
60867;SDS011;46702;48.370;10.794;2023-03-03T04:52:32;26.17;;;11.02;;
60867;SDS011;46702;48.370;10.794;2023-03-03T04:54:57;26.70;;;13.20;;
60867;SDS011;46702;48.370;10.794;2023-03-03T04:57:23;30.02;;;11.63;;
60867;SDS011;46702;48.370;10.794;2023-03-03T04:59:48;30.55;;;12.77;;
60867;SDS011;46702;48.370;10.794;2023-03-03T05:02:15;40.90;;;16.38;;
60867;SDS011;46702;48.370;10.794;2023-03-03T05:04:41;36.05;;;15.75;;
60867;SDS011;46702;48.370;10.794;2023-03-03T05:07:07;29.67;;;12.40;;
60867;SDS011;46702;48.370;10.794;2023-03-03T05:09:33;30.33;;;12.13;;
60867;SDS011;46702;48.370;10.794;2023-03-03T05:11:59;23.90;;;10.57;;
60867;SDS011;46702;48.370;10.794;2023-03-03T05:14:25;28.38;;;12.57;;
60867;SDS011;46702;48.370;10.794;2023-03-03T05:16:51;31.52;;;13.80;;
60867;SDS011;46702;48.370;10.794;2023-03-03T05:19:16;26.75;;;12.30;;
60867;SDS011;46702;48.370;10.794;2023-03-03T05:21:42;33.67;;;14.43;;
60867;SDS011;46702;48.370;10.794;2023-03-03T05:24:08;31.95;;;14.75;;
60867;SDS011;46702;48.370;10.794;2023-03-03T05:26:35;28.27;;;13.90;;
60867;SDS011;46702;48.370;10.794;2023-03-03T05:29:01;29.23;;;12.98;;
60867;SDS011;46702;48.370;10.794;2023-03-03T05:31:26;27.70;;;11.93;;
60867;SDS011;46702;48.370;10.794;2023-03-03T05:33:52;36.65;;;13.73;;
60867;SDS011;46702;48.370;10.794;2023-03-03T05:36:18;27.90;;;13.32;;
60867;SDS011;46702;48.370;10.794;2023-03-03T05:38:44;29.40;;;14.00;;
60867;SDS011;46702;48.370;10.794;2023-03-03T05:41:09;29.95;;;14.73;;
60867;SDS011;46702;48.370;10.794;2023-03-03T05:43:35;35.88;;;15.18;;
60867;SDS011;46702;48.370;10.794;2023-03-03T05:46:01;26.98;;;11.98;;
60867;SDS011;46702;48.370;10.794;2023-03-03T05:48:27;36.05;;;15.48;;
60867;SDS011;46702;48.370;10.794;2023-03-03T05:50:53;31.55;;;15.10;;
60867;SDS011;46702;48.370;10.794;2023-03-03T05:55:47;37.05;;;14.73;;
60867;SDS011;46702;48.370;10.794;2023-03-03T05:58:13;35.10;;;13.88;;
60867;SDS011;46702;48.370;10.794;2023-03-03T06:00:38;51.88;;;16.85;;
60867;SDS011;46702;48.370;10.794;2023-03-03T06:03:04;37.63;;;14.82;;
60867;SDS011;46702;48.370;10.794;2023-03-03T06:05:30;32.08;;;13.90;;
60867;SDS011;46702;48.370;10.794;2023-03-03T06:07:55;37.97;;;17.38;;
60867;SDS011;46702;48.370;10.794;2023-03-03T06:10:21;38.70;;;15.95;;
60867;SDS011;46702;48.370;10.794;2023-03-03T06:12:46;31.25;;;14.27;;
60867;SDS011;46702;48.370;10.794;2023-03-03T06:15:12;35.10;;;15.50;;
60867;SDS011;46702;48.370;10.794;2023-03-03T06:17:38;37.47;;;15.35;;
60867;SDS011;46702;48.370;10.794;2023-03-03T06:20:03;34.17;;;15.00;;
60867;SDS011;46702;48.370;10.794;2023-03-03T06:22:29;43.80;;;18.20;;
60867;SDS011;46702;48.370;10.794;2023-03-03T06:24:55;45.60;;;16.77;;
60867;SDS011;46702;48.370;10.794;2023-03-03T06:27:21;35.53;;;14.18;;
60867;SDS011;46702;48.370;10.794;2023-03-03T06:29:46;34.97;;;13.32;;
60867;SDS011;46702;48.370;10.794;2023-03-03T06:32:12;36.92;;;14.93;;
60867;SDS011;46702;48.370;10.794;2023-03-03T06:34:38;46.90;;;16.45;;
60867;SDS011;46702;48.370;10.794;2023-03-03T06:37:03;37.20;;;16.10;;
60867;SDS011;46702;48.370;10.794;2023-03-03T06:39:29;37.50;;;17.50;;
60867;SDS011;46702;48.370;10.794;2023-03-03T06:41:55;38.63;;;17.00;;
60867;SDS011;46702;48.370;10.794;2023-03-03T06:44:20;45.38;;;17.55;;
60867;SDS011;46702;48.370;10.794;2023-03-03T06:46:46;46.00;;;16.77;;
60867;SDS011;46702;48.370;10.794;2023-03-03T06:49:11;39.90;;;14.85;;
60867;SDS011;46702;48.370;10.794;2023-03-03T06:51:37;48.35;;;17.90;;
60867;SDS011;46702;48.370;10.794;2023-03-03T06:54:11;42.88;;;17.65;;
60867;SDS011;46702;48.370;10.794;2023-03-03T06:56:38;46.47;;;16.73;;
60867;SDS011;46702;48.370;10.794;2023-03-03T06:59:10;40.28;;;17.05;;
60867;SDS011;46702;48.370;10.794;2023-03-03T07:01:39;49.30;;;18.92;;
60867;SDS011;46702;48.370;10.794;2023-03-03T07:06:53;51.67;;;17.97;;
60867;SDS011;46702;48.370;10.794;2023-03-03T07:09:27;37.17;;;15.27;;
60867;SDS011;46702;48.370;10.794;2023-03-03T07:11:59;39.03;;;17.77;;
60867;SDS011;46702;48.370;10.794;2023-03-03T07:14:30;38.50;;;15.35;;
60867;SDS011;46702;48.370;10.794;2023-03-03T07:17:00;38.60;;;16.38;;
60867;SDS011;46702;48.370;10.794;2023-03-03T07:22:00;43.60;;;18.80;;
60867;SDS011;46702;48.370;10.794;2023-03-03T07:24:38;38.88;;;16.80;;
60867;SDS011;46702;48.370;10.794;2023-03-03T07:29:35;41.78;;;16.90;;
60867;SDS011;46702;48.370;10.794;2023-03-03T07:32:12;42.75;;;18.60;;
60867;SDS011;46702;48.370;10.794;2023-03-03T07:34:48;40.83;;;20.60;;
60867;SDS011;46702;48.370;10.794;2023-03-03T07:37:16;45.10;;;17.60;;
60867;SDS011;46702;48.370;10.794;2023-03-03T07:39:45;40.15;;;18.83;;
60867;SDS011;46702;48.370;10.794;2023-03-03T07:42:16;38.85;;;17.23;;
60867;SDS011;46702;48.370;10.794;2023-03-03T07:44:46;38.70;;;16.77;;
60867;SDS011;46702;48.370;10.794;2023-03-03T07:49:48;43.05;;;16.20;;
60867;SDS011;46702;48.370;10.794;2023-03-03T07:52:58;44.47;;;17.10;;
60867;SDS011;46702;48.370;10.794;2023-03-03T07:55:29;44.75;;;18.40;;
60867;SDS011;46702;48.370;10.794;2023-03-03T07:58:45;33.92;;;16.33;;
60867;SDS011;46702;48.370;10.794;2023-03-03T08:03:51;44.00;;;17.92;;
60867;SDS011;46702;48.370;10.794;2023-03-03T08:06:26;36.72;;;17.55;;
60867;SDS011;46702;48.370;10.794;2023-03-03T08:09:03;30.48;;;15.20;;
60867;SDS011;46702;48.370;10.794;2023-03-03T08:14:30;40.00;;;17.02;;
60867;SDS011;46702;48.370;10.794;2023-03-03T08:16:59;49.30;;;19.20;;
60867;SDS011;46702;48.370;10.794;2023-03-03T08:19:26;44.08;;;17.60;;
60867;SDS011;46702;48.370;10.794;2023-03-03T08:21:57;44.90;;;18.17;;
60867;SDS011;46702;48.370;10.794;2023-03-03T08:24:26;34.80;;;14.90;;
60867;SDS011;46702;48.370;10.794;2023-03-03T08:26:52;43.85;;;18.95;;
60867;SDS011;46702;48.370;10.794;2023-03-03T08:29:17;42.60;;;16.55;;
60867;SDS011;46702;48.370;10.794;2023-03-03T08:31:43;28.80;;;13.63;;
60867;SDS011;46702;48.370;10.794;2023-03-03T08:34:09;46.83;;;18.42;;
60867;SDS011;46702;48.370;10.794;2023-03-03T08:36:34;45.55;;;18.83;;
60867;SDS011;46702;48.370;10.794;2023-03-03T08:39:00;37.75;;;18.88;;
60867;SDS011;46702;48.370;10.794;2023-03-03T08:41:27;52.40;;;21.30;;
60867;SDS011;46702;48.370;10.794;2023-03-03T08:43:53;16.33;;;10.73;;
60867;SDS011;46702;48.370;10.794;2023-03-03T08:46:18;42.67;;;19.15;;
60867;SDS011;46702;48.370;10.794;2023-03-03T08:48:44;54.53;;;21.13;;
60867;SDS011;46702;48.370;10.794;2023-03-03T08:51:10;89.72;;;36.50;;
60867;SDS011;46702;48.370;10.794;2023-03-03T08:53:35;48.88;;;19.88;;
60867;SDS011;46702;48.370;10.794;2023-03-03T08:56:02;31.60;;;13.63;;
60867;SDS011;46702;48.370;10.794;2023-03-03T08:58:29;32.88;;;16.70;;
60867;SDS011;46702;48.370;10.794;2023-03-03T09:00:56;47.88;;;20.52;;
60867;SDS011;46702;48.370;10.794;2023-03-03T09:03:23;48.97;;;19.27;;
60867;SDS011;46702;48.370;10.794;2023-03-03T09:05:49;28.95;;;16.00;;
60867;SDS011;46702;48.370;10.794;2023-03-03T09:08:16;41.75;;;18.42;;
60867;SDS011;46702;48.370;10.794;2023-03-03T09:10:44;47.25;;;19.98;;
60867;SDS011;46702;48.370;10.794;2023-03-03T09:13:13;44.95;;;17.90;;
60867;SDS011;46702;48.370;10.794;2023-03-03T09:15:41;46.20;;;20.33;;
60867;SDS011;46702;48.370;10.794;2023-03-03T09:20:42;30.20;;;12.50;;
60867;SDS011;46702;48.370;10.794;2023-03-03T09:26:00;46.42;;;21.60;;
60867;SDS011;46702;48.370;10.794;2023-03-03T09:28:39;47.80;;;18.65;;
60867;SDS011;46702;48.370;10.794;2023-03-03T09:31:05;41.60;;;17.85;;
60867;SDS011;46702;48.370;10.794;2023-03-03T09:33:48;42.90;;;20.13;;
60867;SDS011;46702;48.370;10.794;2023-03-03T09:36:25;44.42;;;18.60;;
60867;SDS011;46702;48.370;10.794;2023-03-03T09:38:54;48.97;;;20.15;;
60867;SDS011;46702;48.370;10.794;2023-03-03T09:41:39;53.30;;;20.48;;
60867;SDS011;46702;48.370;10.794;2023-03-03T09:55:05;44.72;;;19.10;;
60867;SDS011;46702;48.370;10.794;2023-03-03T10:00:35;49.17;;;20.00;;
60867;SDS011;46702;48.370;10.794;2023-03-03T10:06:26;50.15;;;21.10;;
60867;SDS011;46702;48.370;10.794;2023-03-03T10:11:30;43.95;;;19.48;;
60867;SDS011;46702;48.370;10.794;2023-03-03T10:23:18;35.22;;;18.33;;
60867;SDS011;46702;48.370;10.794;2023-03-03T10:37:14;37.72;;;18.67;;
60867;SDS011;46702;48.370;10.794;2023-03-03T10:39:58;38.05;;;17.05;;
60867;SDS011;46702;48.370;10.794;2023-03-03T10:53:40;38.83;;;19.00;;
60867;SDS011;46702;48.370;10.794;2023-03-03T10:59:23;47.25;;;21.52;;
60867;SDS011;46702;48.370;10.794;2023-03-03T11:01:57;43.40;;;19.58;;
60867;SDS011;46702;48.370;10.794;2023-03-03T11:04:56;42.42;;;19.38;;
60867;SDS011;46702;48.370;10.794;2023-03-03T11:13:05;44.65;;;20.05;;
60867;SDS011;46702;48.370;10.794;2023-03-03T11:15:57;47.78;;;21.27;;
60867;SDS011;46702;48.370;10.794;2023-03-03T11:18:51;45.92;;;20.33;;
60867;SDS011;46702;48.370;10.794;2023-03-03T11:24:35;47.63;;;20.23;;
60867;SDS011;46702;48.370;10.794;2023-03-03T11:27:28;47.38;;;21.15;;
60867;SDS011;46702;48.370;10.794;2023-03-03T11:32:37;43.42;;;19.85;;
60867;SDS011;46702;48.370;10.794;2023-03-03T11:40:23;42.92;;;18.50;;
60867;SDS011;46702;48.370;10.794;2023-03-03T11:45:58;39.28;;;17.77;;
60867;SDS011;46702;48.370;10.794;2023-03-03T11:51:19;42.75;;;18.95;;
60867;SDS011;46702;48.370;10.794;2023-03-03T11:54:09;42.05;;;19.00;;
60867;SDS011;46702;48.370;10.794;2023-03-03T11:56:44;40.95;;;18.70;;
60867;SDS011;46702;48.370;10.794;2023-03-03T12:01:58;40.20;;;18.48;;
60867;SDS011;46702;48.370;10.794;2023-03-03T12:04:31;35.88;;;18.58;;
60867;SDS011;46702;48.370;10.794;2023-03-03T12:10:30;43.95;;;19.85;;
60867;SDS011;46702;48.370;10.794;2023-03-03T12:39:17;42.88;;;19.30;;
60867;SDS011;46702;48.370;10.794;2023-03-03T12:50:02;39.80;;;19.40;;
60867;SDS011;46702;48.370;10.794;2023-03-03T12:52:53;40.00;;;18.27;;
60867;SDS011;46702;48.370;10.794;2023-03-03T13:03:40;38.28;;;18.65;;
60867;SDS011;46702;48.370;10.794;2023-03-03T13:17:56;38.03;;;17.60;;
60867;SDS011;46702;48.370;10.794;2023-03-03T13:20:33;48.38;;;17.92;;
60867;SDS011;46702;48.370;10.794;2023-03-03T13:23:38;37.35;;;16.73;;
60867;SDS011;46702;48.370;10.794;2023-03-03T13:31:19;30.05;;;16.00;;
60867;SDS011;46702;48.370;10.794;2023-03-03T13:33:50;34.70;;;15.45;;
60867;SDS011;46702;48.370;10.794;2023-03-03T13:36:17;31.17;;;15.40;;
60867;SDS011;46702;48.370;10.794;2023-03-03T13:38:54;34.03;;;17.05;;
60867;SDS011;46702;48.370;10.794;2023-03-03T13:52:28;29.33;;;15.73;;
60867;SDS011;46702;48.370;10.794;2023-03-03T13:54:50;33.95;;;16.90;;
60867;SDS011;46702;48.370;10.794;2023-03-03T14:00:04;33.78;;;16.42;;
60867;SDS011;46702;48.370;10.794;2023-03-03T14:10:27;33.03;;;16.38;;
60867;SDS011;46702;48.370;10.794;2023-03-03T14:13:01;39.22;;;15.77;;
60867;SDS011;46702;48.370;10.794;2023-03-03T14:15:35;34.42;;;16.27;;
60867;SDS011;46702;48.370;10.794;2023-03-03T14:20:33;33.65;;;15.63;;
60867;SDS011;46702;48.370;10.794;2023-03-03T14:23:01;29.40;;;15.55;;
60867;SDS011;46702;48.370;10.794;2023-03-03T14:25:31;32.10;;;15.75;;
60867;SDS011;46702;48.370;10.794;2023-03-03T14:28:20;28.67;;;15.32;;
60867;SDS011;46702;48.370;10.794;2023-03-03T14:30:46;28.85;;;14.48;;
60867;SDS011;46702;48.370;10.794;2023-03-03T14:35:40;30.25;;;16.52;;
60867;SDS011;46702;48.370;10.794;2023-03-03T14:38:16;28.95;;;15.85;;
60867;SDS011;46702;48.370;10.794;2023-03-03T14:40:43;38.33;;;17.42;;
60867;SDS011;46702;48.370;10.794;2023-03-03T14:43:26;26.92;;;15.35;;
60867;SDS011;46702;48.370;10.794;2023-03-03T14:46:14;31.23;;;15.95;;
60867;SDS011;46702;48.370;10.794;2023-03-03T14:48:50;36.40;;;17.27;;
60867;SDS011;46702;48.370;10.794;2023-03-03T14:51:38;35.80;;;16.30;;
60867;SDS011;46702;48.370;10.794;2023-03-03T14:54:07;31.30;;;16.92;;
60867;SDS011;46702;48.370;10.794;2023-03-03T14:56:34;30.13;;;16.05;;
60867;SDS011;46702;48.370;10.794;2023-03-03T14:59:15;35.33;;;17.52;;
60867;SDS011;46702;48.370;10.794;2023-03-03T15:01:42;35.60;;;17.40;;
60867;SDS011;46702;48.370;10.794;2023-03-03T15:06:50;32.85;;;15.82;;
60867;SDS011;46702;48.370;10.794;2023-03-03T15:09:23;34.03;;;18.45;;
60867;SDS011;46702;48.370;10.794;2023-03-03T15:11:50;37.42;;;18.35;;
60867;SDS011;46702;48.370;10.794;2023-03-03T15:14:17;34.90;;;17.50;;
60867;SDS011;46702;48.370;10.794;2023-03-03T15:16:44;32.70;;;17.58;;
60867;SDS011;46702;48.370;10.794;2023-03-03T15:19:17;37.20;;;17.15;;
60867;SDS011;46702;48.370;10.794;2023-03-03T15:21:53;30.33;;;16.80;;
60867;SDS011;46702;48.370;10.794;2023-03-03T15:24:25;34.35;;;17.48;;
60867;SDS011;46702;48.370;10.794;2023-03-03T15:27:02;35.55;;;17.17;;
60867;SDS011;46702;48.370;10.794;2023-03-03T15:29:36;33.65;;;15.98;;
60867;SDS011;46702;48.370;10.794;2023-03-03T15:37:07;32.13;;;16.05;;
60867;SDS011;46702;48.370;10.794;2023-03-03T15:39:51;28.05;;;15.10;;
60867;SDS011;46702;48.370;10.794;2023-03-03T15:44:59;29.75;;;15.75;;
60867;SDS011;46702;48.370;10.794;2023-03-03T15:55:05;29.95;;;15.32;;
60867;SDS011;46702;48.370;10.794;2023-03-03T15:57:45;28.55;;;16.15;;
60867;SDS011;46702;48.370;10.794;2023-03-03T16:02:50;32.67;;;15.57;;
60867;SDS011;46702;48.370;10.794;2023-03-03T16:07:52;30.15;;;15.57;;
60867;SDS011;46702;48.370;10.794;2023-03-03T16:18:36;29.33;;;15.60;;
60867;SDS011;46702;48.370;10.794;2023-03-03T16:21:11;31.58;;;16.02;;
60867;SDS011;46702;48.370;10.794;2023-03-03T16:23:46;31.88;;;15.75;;
60867;SDS011;46702;48.370;10.794;2023-03-03T16:34:29;26.80;;;14.65;;
60867;SDS011;46702;48.370;10.794;2023-03-03T16:42:28;34.70;;;16.95;;
60867;SDS011;46702;48.370;10.794;2023-03-03T16:44:59;35.22;;;17.52;;
60867;SDS011;46702;48.370;10.794;2023-03-03T16:52:28;62.08;;;30.95;;
60867;SDS011;46702;48.370;10.794;2023-03-03T16:54:58;58.85;;;27.35;;
60867;SDS011;46702;48.370;10.794;2023-03-03T16:57:49;51.92;;;25.75;;
60867;SDS011;46702;48.370;10.794;2023-03-03T17:03:08;54.22;;;24.95;;
60867;SDS011;46702;48.370;10.794;2023-03-03T17:05:43;50.55;;;22.58;;
60867;SDS011;46702;48.370;10.794;2023-03-03T17:11:07;44.42;;;22.30;;
60867;SDS011;46702;48.370;10.794;2023-03-03T17:19:03;30.73;;;16.27;;
60867;SDS011;46702;48.370;10.794;2023-03-03T17:21:43;34.70;;;16.77;;
60867;SDS011;46702;48.370;10.794;2023-03-03T17:26:50;33.20;;;17.42;;
60867;SDS011;46702;48.370;10.794;2023-03-03T17:34:30;41.40;;;22.23;;
60867;SDS011;46702;48.370;10.794;2023-03-03T17:42:42;37.13;;;17.60;;
60867;SDS011;46702;48.370;10.794;2023-03-03T17:45:14;38.53;;;16.88;;
60867;SDS011;46702;48.370;10.794;2023-03-03T18:11:31;44.65;;;16.63;;
60867;SDS011;46702;48.370;10.794;2023-03-03T18:24:34;36.22;;;16.58;;
60867;SDS011;46702;48.370;10.794;2023-03-03T18:29:39;33.58;;;16.88;;
60867;SDS011;46702;48.370;10.794;2023-03-03T18:32:25;38.70;;;17.98;;
60867;SDS011;46702;48.370;10.794;2023-03-03T18:35:24;38.25;;;17.58;;
60867;SDS011;46702;48.370;10.794;2023-03-03T18:37:50;35.60;;;17.85;;
60867;SDS011;46702;48.370;10.794;2023-03-03T18:42:43;42.33;;;19.13;;
60867;SDS011;46702;48.370;10.794;2023-03-03T18:45:14;38.67;;;17.80;;
60867;SDS011;46702;48.370;10.794;2023-03-03T18:48:08;40.83;;;18.95;;
60867;SDS011;46702;48.370;10.794;2023-03-03T18:50:36;52.33;;;19.88;;
60867;SDS011;46702;48.370;10.794;2023-03-03T18:56:02;42.30;;;20.65;;
60867;SDS011;46702;48.370;10.794;2023-03-03T19:01:01;35.22;;;16.77;;
60867;SDS011;46702;48.370;10.794;2023-03-03T19:03:34;40.83;;;19.27;;
60867;SDS011;46702;48.370;10.794;2023-03-03T19:06:01;38.85;;;18.10;;
60867;SDS011;46702;48.370;10.794;2023-03-03T19:11:00;40.13;;;18.25;;
60867;SDS011;46702;48.370;10.794;2023-03-03T19:16:05;51.38;;;20.92;;
60867;SDS011;46702;48.370;10.794;2023-03-03T19:18:33;42.63;;;16.88;;
60867;SDS011;46702;48.370;10.794;2023-03-03T19:21:01;45.30;;;20.77;;
60867;SDS011;46702;48.370;10.794;2023-03-03T19:28:40;38.35;;;16.98;;
60867;SDS011;46702;48.370;10.794;2023-03-03T19:31:13;38.35;;;19.67;;
60867;SDS011;46702;48.370;10.794;2023-03-03T19:33:47;37.72;;;18.90;;
60867;SDS011;46702;48.370;10.794;2023-03-03T19:41:41;38.08;;;18.65;;
60867;SDS011;46702;48.370;10.794;2023-03-03T19:52:02;41.55;;;18.88;;
60867;SDS011;46702;48.370;10.794;2023-03-03T19:56:57;36.00;;;16.48;;
60867;SDS011;46702;48.370;10.794;2023-03-03T19:59:42;38.50;;;19.42;;
60867;SDS011;46702;48.370;10.794;2023-03-03T20:09:52;42.60;;;19.65;;
60867;SDS011;46702;48.370;10.794;2023-03-03T20:12:28;31.35;;;17.13;;
60867;SDS011;46702;48.370;10.794;2023-03-03T20:15:08;36.15;;;17.63;;
60867;SDS011;46702;48.370;10.794;2023-03-03T20:25:47;41.50;;;17.92;;
60867;SDS011;46702;48.370;10.794;2023-03-03T20:30:54;37.90;;;20.00;;
60867;SDS011;46702;48.370;10.794;2023-03-03T20:38:29;44.35;;;19.13;;
60867;SDS011;46702;48.370;10.794;2023-03-03T20:43:48;35.53;;;16.00;;
60867;SDS011;46702;48.370;10.794;2023-03-03T20:48:52;35.13;;;16.00;;
60867;SDS011;46702;48.370;10.794;2023-03-03T20:54:12;38.90;;;17.90;;